sensor_id;sensor_type;location;lat;lon;timestamp;pressure;altitude;pressure_sealevel;temperature;humidity
24440;BME280;12618;54.386;18.394;2023-02-11T15:01:52;100059.64;;;6.19;100.00
24440;BME280;12618;54.386;18.394;2023-02-11T15:04:33;100074.71;;;6.18;100.00
24440;BME280;12618;54.386;18.394;2023-02-11T15:07:07;100085.42;;;6.16;100.00
24440;BME280;12618;54.386;18.394;2023-02-11T15:09:44;100094.54;;;6.14;100.00
24440;BME280;12618;54.386;18.394;2023-02-11T15:12:23;100106.30;;;6.12;100.00
24440;BME280;12618;54.386;18.394;2023-02-11T15:14:57;100108.42;;;6.11;100.00
24440;BME280;12618;54.386;18.394;2023-02-11T15:17:31;100113.25;;;6.06;100.00
24440;BME280;12618;54.386;18.394;2023-02-11T15:20:05;100118.91;;;6.03;100.00
24440;BME280;12618;54.386;18.394;2023-02-11T15:22:37;100119.50;;;6.00;100.00
24440;BME280;12618;54.386;18.394;2023-02-11T15:25:13;100116.85;;;5.94;100.00
24440;BME280;12618;54.386;18.394;2023-02-11T15:27:53;100126.48;;;5.93;100.00
24440;BME280;12618;54.386;18.394;2023-02-11T15:30:31;100135.45;;;5.90;100.00
24440;BME280;12618;54.386;18.394;2023-02-11T15:33:05;100145.27;;;5.85;100.00
24440;BME280;12618;54.386;18.394;2023-02-11T15:35:39;100151.98;;;5.83;100.00
24440;BME280;12618;54.386;18.394;2023-02-11T15:38:13;100156.05;;;5.81;100.00
24440;BME280;12618;54.386;18.394;2023-02-11T15:41:31;100162.21;;;5.77;100.00
24440;BME280;12618;54.386;18.394;2023-02-11T15:44:04;100171.94;;;5.73;100.00
24440;BME280;12618;54.386;18.394;2023-02-11T15:46:37;100183.86;;;5.69;100.00
24440;BME280;12618;54.386;18.394;2023-02-11T15:49:14;100185.90;;;5.64;100.00
24440;BME280;12618;54.386;18.394;2023-02-11T15:51:53;100201.73;;;5.58;100.00
24440;BME280;12618;54.386;18.394;2023-02-11T15:54:29;100201.67;;;5.52;100.00
24440;BME280;12618;54.386;18.394;2023-02-11T15:57:08;100213.66;;;5.46;100.00
24440;BME280;12618;54.386;18.394;2023-02-11T15:59:46;100222.89;;;5.38;100.00
24440;BME280;12618;54.386;18.394;2023-02-11T16:02:32;100240.45;;;5.32;100.00
24440;BME280;12618;54.386;18.394;2023-02-11T16:05:07;100240.92;;;5.26;100.00
24440;BME280;12618;54.386;18.394;2023-02-11T16:07:49;100248.52;;;5.20;100.00
24440;BME280;12618;54.386;18.394;2023-02-11T16:10:33;100253.49;;;5.15;100.00
24440;BME280;12618;54.386;18.394;2023-02-11T16:15:56;100277.02;;;5.05;100.00
24440;BME280;12618;54.386;18.394;2023-02-11T16:18:37;100281.97;;;5.01;100.00
24440;BME280;12618;54.386;18.394;2023-02-11T16:21:40;100294.90;;;4.99;100.00
24440;BME280;12618;54.386;18.394;2023-02-11T16:24:23;100302.13;;;4.96;100.00
24440;BME280;12618;54.386;18.394;2023-02-11T16:27:38;100310.20;;;4.91;100.00
24440;BME280;12618;54.386;18.394;2023-02-11T16:30:28;100326.27;;;4.89;100.00
24440;BME280;12618;54.386;18.394;2023-02-11T16:33:04;100336.08;;;4.86;100.00
24440;BME280;12618;54.386;18.394;2023-02-11T16:35:36;100345.55;;;4.84;100.00
24440;BME280;12618;54.386;18.394;2023-02-11T16:38:09;100354.80;;;4.82;100.00
24440;BME280;12618;54.386;18.394;2023-02-11T16:40:41;100360.42;;;4.80;100.00
24440;BME280;12618;54.386;18.394;2023-02-11T16:43:19;100361.86;;;4.75;100.00
24440;BME280;12618;54.386;18.394;2023-02-11T16:45:52;100368.88;;;4.73;100.00
24440;BME280;12618;54.386;18.394;2023-02-11T16:48:25;100373.77;;;4.71;100.00
24440;BME280;12618;54.386;18.394;2023-02-11T16:50:57;100379.20;;;4.70;100.00
24440;BME280;12618;54.386;18.394;2023-02-11T16:53:29;100391.92;;;4.70;100.00
24440;BME280;12618;54.386;18.394;2023-02-11T16:56:02;100400.84;;;4.68;100.00
24440;BME280;12618;54.386;18.394;2023-02-11T16:58:35;100397.71;;;4.67;100.00
24440;BME280;12618;54.386;18.394;2023-02-11T17:01:06;100413.97;;;4.64;100.00
24440;BME280;12618;54.386;18.394;2023-02-11T17:03:39;100420.66;;;4.57;100.00
24440;BME280;12618;54.386;18.394;2023-02-11T17:06:12;100429.52;;;4.47;100.00
24440;BME280;12618;54.386;18.394;2023-02-11T17:08:44;100433.46;;;4.36;100.00
24440;BME280;12618;54.386;18.394;2023-02-11T17:11:15;100444.70;;;4.27;100.00
24440;BME280;12618;54.386;18.394;2023-02-11T17:13:48;100454.55;;;4.19;100.00
24440;BME280;12618;54.386;18.394;2023-02-11T17:16:21;100458.13;;;4.08;100.00
24440;BME280;12618;54.386;18.394;2023-02-11T17:18:54;100460.81;;;4.02;100.00
24440;BME280;12618;54.386;18.394;2023-02-11T17:21:26;100463.09;;;3.99;100.00
24440;BME280;12618;54.386;18.394;2023-02-11T17:24:00;100468.89;;;3.96;100.00
24440;BME280;12618;54.386;18.394;2023-02-11T17:26:36;100482.82;;;3.95;100.00
24440;BME280;12618;54.386;18.394;2023-02-11T17:29:12;100492.77;;;3.92;100.00
24440;BME280;12618;54.386;18.394;2023-02-11T17:31:44;100498.21;;;3.86;100.00
24440;BME280;12618;54.386;18.394;2023-02-11T17:34:18;100503.46;;;3.82;100.00
24440;BME280;12618;54.386;18.394;2023-02-11T17:36:51;100504.01;;;3.79;100.00
24440;BME280;12618;54.386;18.394;2023-02-11T17:39:25;100514.63;;;3.77;100.00
24440;BME280;12618;54.386;18.394;2023-02-11T17:41:59;100528.63;;;3.71;100.00
24440;BME280;12618;54.386;18.394;2023-02-11T17:44:32;100542.07;;;3.61;100.00
24440;BME280;12618;54.386;18.394;2023-02-11T17:47:04;100548.05;;;3.52;100.00
24440;BME280;12618;54.386;18.394;2023-02-11T17:49:36;100556.95;;;3.43;100.00
24440;BME280;12618;54.386;18.394;2023-02-11T17:52:09;100569.20;;;3.33;100.00
24440;BME280;12618;54.386;18.394;2023-02-11T17:54:41;100568.02;;;3.25;100.00
24440;BME280;12618;54.386;18.394;2023-02-11T17:57:13;100571.88;;;3.18;100.00
24440;BME280;12618;54.386;18.394;2023-02-11T17:59:45;100576.24;;;3.12;100.00
24440;BME280;12618;54.386;18.394;2023-02-11T18:02:18;100576.45;;;3.06;100.00
24440;BME280;12618;54.386;18.394;2023-02-11T18:04:50;100585.33;;;2.98;100.00
24440;BME280;12618;54.386;18.394;2023-02-11T18:07:22;100595.61;;;2.92;100.00
24440;BME280;12618;54.386;18.394;2023-02-11T18:09:54;100602.55;;;2.88;100.00
24440;BME280;12618;54.386;18.394;2023-02-11T18:12:26;100614.57;;;2.84;100.00
24440;BME280;12618;54.386;18.394;2023-02-11T18:14:58;100619.27;;;2.79;100.00
24440;BME280;12618;54.386;18.394;2023-02-11T18:17:30;100622.57;;;2.77;100.00
24440;BME280;12618;54.386;18.394;2023-02-11T18:20:03;100627.28;;;2.73;100.00
24440;BME280;12618;54.386;18.394;2023-02-11T18:22:35;100626.59;;;2.67;100.00
24440;BME280;12618;54.386;18.394;2023-02-11T18:25:12;100629.73;;;2.62;100.00
24440;BME280;12618;54.386;18.394;2023-02-11T18:27:45;100635.63;;;2.57;100.00
24440;BME280;12618;54.386;18.394;2023-02-11T18:30:18;100640.84;;;2.56;100.00
24440;BME280;12618;54.386;18.394;2023-02-11T18:32:54;100644.17;;;2.53;100.00
24440;BME280;12618;54.386;18.394;2023-02-11T18:35:26;100657.19;;;2.52;100.00
24440;BME280;12618;54.386;18.394;2023-02-11T18:37:58;100667.25;;;2.48;100.00
24440;BME280;12618;54.386;18.394;2023-02-11T18:40:30;100675.76;;;2.44;100.00
24440;BME280;12618;54.386;18.394;2023-02-11T18:43:01;100676.48;;;2.42;100.00
24440;BME280;12618;54.386;18.394;2023-02-11T18:45:33;100678.20;;;2.40;100.00
24440;BME280;12618;54.386;18.394;2023-02-11T18:48:06;100687.05;;;2.42;100.00
24440;BME280;12618;54.386;18.394;2023-02-11T18:50:42;100691.39;;;2.44;100.00
24440;BME280;12618;54.386;18.394;2023-02-11T18:53:14;100694.87;;;2.44;100.00
24440;BME280;12618;54.386;18.394;2023-02-11T18:55:46;100704.96;;;2.42;100.00
24440;BME280;12618;54.386;18.394;2023-02-11T18:59:42;100717.97;;;2.41;100.00
24440;BME280;12618;54.386;18.394;2023-02-11T19:02:16;100731.16;;;2.38;100.00
24440;BME280;12618;54.386;18.394;2023-02-11T19:04:47;100737.40;;;2.35;100.00
24440;BME280;12618;54.386;18.394;2023-02-11T19:07:20;100736.52;;;2.34;100.00
24440;BME280;12618;54.386;18.394;2023-02-11T19:09:52;100744.53;;;2.31;100.00
24440;BME280;12618;54.386;18.394;2023-02-11T19:12:24;100748.88;;;2.30;100.00
24440;BME280;12618;54.386;18.394;2023-02-11T19:14:56;100751.64;;;2.28;100.00
24440;BME280;12618;54.386;18.394;2023-02-11T19:17:34;100759.63;;;2.27;100.00
24440;BME280;12618;54.386;18.394;2023-02-11T19:20:06;100769.35;;;2.28;100.00
24440;BME280;12618;54.386;18.394;2023-02-11T19:22:38;100780.29;;;2.27;100.00
24440;BME280;12618;54.386;18.394;2023-02-11T19:25:10;100786.88;;;2.27;100.00
24440;BME280;12618;54.386;18.394;2023-02-11T19:27:42;100794.01;;;2.28;100.00
24440;BME280;12618;54.386;18.394;2023-02-11T19:30:14;100804.23;;;2.26;100.00
24440;BME280;12618;54.386;18.394;2023-02-11T19:32:46;100804.77;;;2.26;100.00
24440;BME280;12618;54.386;18.394;2023-02-11T19:35:24;100813.08;;;2.24;100.00
24440;BME280;12618;54.386;18.394;2023-02-11T19:37:56;100817.95;;;2.21;100.00
24440;BME280;12618;54.386;18.394;2023-02-11T19:40:28;100812.73;;;2.17;100.00
24440;BME280;12618;54.386;18.394;2023-02-11T19:42:59;100815.83;;;2.13;100.00
24440;BME280;12618;54.386;18.394;2023-02-11T19:45:31;100822.40;;;2.10;100.00
24440;BME280;12618;54.386;18.394;2023-02-11T19:48:03;100824.33;;;2.10;100.00
24440;BME280;12618;54.386;18.394;2023-02-11T19:50:35;100826.41;;;2.11;100.00
24440;BME280;12618;54.386;18.394;2023-02-11T19:53:07;100834.91;;;2.09;100.00
24440;BME280;12618;54.386;18.394;2023-02-11T19:55:39;100841.66;;;2.04;100.00
24440;BME280;12618;54.386;18.394;2023-02-11T19:58:10;100851.52;;;2.01;100.00
24440;BME280;12618;54.386;18.394;2023-02-11T20:00:42;100857.42;;;1.97;100.00
24440;BME280;12618;54.386;18.394;2023-02-11T20:03:14;100861.40;;;1.94;100.00
24440;BME280;12618;54.386;18.394;2023-02-11T20:05:46;100867.27;;;1.92;100.00
24440;BME280;12618;54.386;18.394;2023-02-11T20:08:18;100870.73;;;1.89;100.00
24440;BME280;12618;54.386;18.394;2023-02-11T20:17:48;100897.40;;;1.80;100.00
24440;BME280;12618;54.386;18.394;2023-02-11T20:20:20;100903.98;;;1.78;100.00
24440;BME280;12618;54.386;18.394;2023-02-11T20:22:52;100907.45;;;1.76;100.00
24440;BME280;12618;54.386;18.394;2023-02-11T20:25:24;100910.73;;;1.76;100.00
24440;BME280;12618;54.386;18.394;2023-02-11T20:27:55;100910.22;;;1.75;100.00
24440;BME280;12618;54.386;18.394;2023-02-11T20:30:27;100914.90;;;1.75;100.00
24440;BME280;12618;54.386;18.394;2023-02-11T20:32:59;100924.27;;;1.76;100.00
24440;BME280;12618;54.386;18.394;2023-02-11T20:35:31;100930.52;;;1.78;100.00
24440;BME280;12618;54.386;18.394;2023-02-11T20:38:02;100939.40;;;1.81;100.00
24440;BME280;12618;54.386;18.394;2023-02-11T20:40:34;100947.93;;;1.84;100.00
24440;BME280;12618;54.386;18.394;2023-02-11T20:43:10;100944.14;;;1.86;100.00
24440;BME280;12618;54.386;18.394;2023-02-11T20:45:41;100958.73;;;1.88;100.00
24440;BME280;12618;54.386;18.394;2023-02-11T20:48:13;100961.66;;;1.88;100.00
24440;BME280;12618;54.386;18.394;2023-02-11T20:50:45;100968.62;;;1.87;100.00
24440;BME280;12618;54.386;18.394;2023-02-11T20:53:18;100969.97;;;1.84;100.00
24440;BME280;12618;54.386;18.394;2023-02-11T20:55:50;100979.48;;;1.80;100.00
24440;BME280;12618;54.386;18.394;2023-02-11T20:58:22;100985.52;;;1.78;100.00
24440;BME280;12618;54.386;18.394;2023-02-11T21:00:55;100992.45;;;1.75;100.00
24440;BME280;12618;54.386;18.394;2023-02-11T21:03:26;101000.95;;;1.74;100.00
24440;BME280;12618;54.386;18.394;2023-02-11T21:05:58;100998.36;;;1.74;100.00
24440;BME280;12618;54.386;18.394;2023-02-11T21:08:30;101006.50;;;1.74;100.00
24440;BME280;12618;54.386;18.394;2023-02-11T21:11:02;101011.90;;;1.75;100.00
24440;BME280;12618;54.386;18.394;2023-02-11T21:13:40;101015.17;;;1.74;100.00
24440;BME280;12618;54.386;18.394;2023-02-11T21:16:14;101013.40;;;1.69;100.00
24440;BME280;12618;54.386;18.394;2023-02-11T21:18:47;101018.41;;;1.68;100.00
24440;BME280;12618;54.386;18.394;2023-02-11T21:21:20;101023.95;;;1.68;100.00
24440;BME280;12618;54.386;18.394;2023-02-11T21:23:52;101031.77;;;1.68;100.00
24440;BME280;12618;54.386;18.394;2023-02-11T21:26:24;101031.60;;;1.69;100.00
24440;BME280;12618;54.386;18.394;2023-02-11T21:28:56;101032.29;;;1.68;100.00
24440;BME280;12618;54.386;18.394;2023-02-11T21:31:29;101032.27;;;1.67;100.00
24440;BME280;12618;54.386;18.394;2023-02-11T21:34:03;101034.00;;;1.66;100.00
24440;BME280;12618;54.386;18.394;2023-02-11T21:36:35;101035.91;;;1.63;100.00
24440;BME280;12618;54.386;18.394;2023-02-11T21:39:08;101041.26;;;1.62;100.00
24440;BME280;12618;54.386;18.394;2023-02-11T21:41:40;101047.29;;;1.57;100.00
24440;BME280;12618;54.386;18.394;2023-02-11T21:44:11;101052.30;;;1.58;100.00
24440;BME280;12618;54.386;18.394;2023-02-11T21:46:43;101054.58;;;1.58;100.00
24440;BME280;12618;54.386;18.394;2023-02-11T21:49:15;101063.25;;;1.58;100.00
24440;BME280;12618;54.386;18.394;2023-02-11T21:51:47;101064.95;;;1.56;100.00
24440;BME280;12618;54.386;18.394;2023-02-11T21:54:19;101061.67;;;1.55;100.00
24440;BME280;12618;54.386;18.394;2023-02-11T21:56:51;101057.48;;;1.53;100.00
24440;BME280;12618;54.386;18.394;2023-02-11T21:59:23;101063.84;;;1.49;100.00
24440;BME280;12618;54.386;18.394;2023-02-11T22:01:55;101069.70;;;1.45;100.00
24440;BME280;12618;54.386;18.394;2023-02-11T22:04:29;101073.17;;;1.44;100.00
24440;BME280;12618;54.386;18.394;2023-02-11T22:07:01;101069.17;;;1.42;100.00
24440;BME280;12618;54.386;18.394;2023-02-11T22:09:33;101070.03;;;1.42;100.00
24440;BME280;12618;54.386;18.394;2023-02-11T22:12:06;101077.65;;;1.41;100.00
24440;BME280;12618;54.386;18.394;2023-02-11T22:14:41;101082.46;;;1.38;100.00
24440;BME280;12618;54.386;18.394;2023-02-11T22:17:13;101085.36;;;1.34;100.00
24440;BME280;12618;54.386;18.394;2023-02-11T22:19:45;101084.46;;;1.30;100.00
24440;BME280;12618;54.386;18.394;2023-02-11T22:22:17;101081.80;;;1.26;100.00
24440;BME280;12618;54.386;18.394;2023-02-11T22:24:50;101092.14;;;1.21;100.00
24440;BME280;12618;54.386;18.394;2023-02-11T22:27:23;101093.67;;;1.18;100.00
24440;BME280;12618;54.386;18.394;2023-02-11T22:29:55;101102.80;;;1.14;100.00
24440;BME280;12618;54.386;18.394;2023-02-11T22:32:27;101108.48;;;1.11;100.00
24440;BME280;12618;54.386;18.394;2023-02-11T22:34:59;101114.38;;;1.09;100.00
24440;BME280;12618;54.386;18.394;2023-02-11T22:37:31;101116.41;;;1.07;100.00
24440;BME280;12618;54.386;18.394;2023-02-11T22:40:04;101115.39;;;1.07;100.00
24440;BME280;12618;54.386;18.394;2023-02-11T22:42:36;101120.27;;;1.09;100.00
24440;BME280;12618;54.386;18.394;2023-02-11T22:45:08;101120.63;;;1.10;100.00
24440;BME280;12618;54.386;18.394;2023-02-11T22:47:40;101125.47;;;1.10;100.00
24440;BME280;12618;54.386;18.394;2023-02-11T22:50:12;101126.70;;;1.12;100.00
24440;BME280;12618;54.386;18.394;2023-02-11T22:52:43;101131.77;;;1.16;100.00
24440;BME280;12618;54.386;18.394;2023-02-11T22:55:16;101134.75;;;1.17;100.00
24440;BME280;12618;54.386;18.394;2023-02-11T22:57:48;101134.75;;;1.17;100.00
24440;BME280;12618;54.386;18.394;2023-02-11T23:00:23;101137.03;;;1.19;100.00
24440;BME280;12618;54.386;18.394;2023-02-11T23:02:56;101147.45;;;1.21;100.00
24440;BME280;12618;54.386;18.394;2023-02-11T23:05:29;101146.98;;;1.25;100.00
24440;BME280;12618;54.386;18.394;2023-02-11T23:08:01;101149.31;;;1.30;100.00
24440;BME280;12618;54.386;18.394;2023-02-11T23:10:35;101146.75;;;1.35;100.00
24440;BME280;12618;54.386;18.394;2023-02-11T23:13:07;101153.33;;;1.34;100.00
24440;BME280;12618;54.386;18.394;2023-02-11T23:15:43;101160.43;;;1.31;100.00
24440;BME280;12618;54.386;18.394;2023-02-11T23:18:15;101164.08;;;1.32;100.00
24440;BME280;12618;54.386;18.394;2023-02-11T23:20:47;101160.09;;;1.32;100.00
24440;BME280;12618;54.386;18.394;2023-02-11T23:23:19;101159.39;;;1.32;100.00
24440;BME280;12618;54.386;18.394;2023-02-11T23:25:51;101167.52;;;1.31;100.00
24440;BME280;12618;54.386;18.394;2023-02-11T23:28:22;101170.99;;;1.31;100.00
24440;BME280;12618;54.386;18.394;2023-02-11T23:30:54;101173.40;;;1.29;100.00
24440;BME280;12618;54.386;18.394;2023-02-11T23:33:26;101180.52;;;1.30;100.00
24440;BME280;12618;54.386;18.394;2023-02-11T23:36:02;101184.50;;;1.30;100.00
24440;BME280;12618;54.386;18.394;2023-02-11T23:38:56;101185.16;;;1.27;100.00
24440;BME280;12618;54.386;18.394;2023-02-11T23:41:27;101185.66;;;1.27;100.00
24440;BME280;12618;54.386;18.394;2023-02-11T23:43:59;101195.20;;;1.27;100.00
24440;BME280;12618;54.386;18.394;2023-02-11T23:46:30;101208.58;;;1.28;100.00
24440;BME280;12618;54.386;18.394;2023-02-11T23:49:03;101216.92;;;1.30;100.00
24440;BME280;12618;54.386;18.394;2023-02-11T23:51:34;101220.08;;;1.31;100.00
24440;BME280;12618;54.386;18.394;2023-02-11T23:54:06;101228.25;;;1.34;100.00
24440;BME280;12618;54.386;18.394;2023-02-11T23:56:37;101225.72;;;1.39;100.00
24440;BME280;12618;54.386;18.394;2023-02-11T23:59:09;101232.88;;;1.42;100.00
